PWSweather.com
Personal Weather Stations
Station Observations
MARICOPA
Cobblestone Farms, Maricopa, AZ 85139

Cobblestone FarmsMaricopa, AZ 85139

Lat: 33.076, Lon: -112.0445

Elevation: 1148

Station Type: LaCrosse 2310/15

http://weather.azkiwis.net

Latest ConditionsUpdated 8:15:06 AM MST Friday, Jan 30, 2015
Currently Today's Max Today's Min Today's Average
Temperature 58.3°F14.6°C 59.0°F15.0°C 57.9°F14.4°C 58.2°F14.6°C
Dew Point 54.7°F12.6°C 55.1°F12.8°C 54.1°F12.3°C 54.5°F12.5°C
Winds Calm Calm Calm SECalm SE - Calm Calm
Wind Gusts -- -- - -
Humidity 88% 88% 87% 88%
Pressure 29.89 in1012.2 mb 30.00 in1015.9 mb 29.89 in1012.2 mb -
Precipitation - 0.33 in8.4 mm - -
Hour Temp Dew Point Humidity Winds Wind Gusts Pressure Precip Precip Rate Daily Precip Total
08:15 AM 58.3°F14.6°C 54.7°F12.6°C 88% Calm Calm -- 29.89 in1012.2 mb 0.00 in0.0 mm 0.00 in/hr0.0 mm/hr 0.33 in8.4 mm
08:00 AM 58.3°F14.6°C 54.7°F12.6°C 88% Calm Calm -- 29.90 in1012.5 mb 0.00 in0.0 mm 0.00 in/hr0.0 mm/hr 0.33 in8.4 mm
07:45 AM 58.1°F14.5°C 54.6°F12.6°C 88% Calm Calm -- 29.90 in1012.5 mb 0.00 in0.0 mm 0.00 in/hr0.0 mm/hr 0.33 in8.4 mm
07:30 AM 58.1°F14.5°C 54.6°F12.6°C 88% Calm Calm -- 29.91 in1012.9 mb 0.00 in0.0 mm 0.00 in/hr0.0 mm/hr 0.33 in8.4 mm
07:15 AM 58.1°F14.5°C 54.6°F12.6°C 88% Calm Calm -- 29.90 in1012.5 mb 0.00 in0.0 mm 0.00 in/hr0.0 mm/hr 0.33 in8.4 mm
07:00 AM 58.1°F14.5°C 54.6°F12.6°C 88% Calm Calm -- 29.90 in1012.5 mb 0.00 in0.0 mm 0.00 in/hr0.0 mm/hr 0.33 in8.4 mm
06:45 AM 58.1°F14.5°C 54.6°F12.6°C 88% Calm Calm -- 29.90 in1012.5 mb 0.00 in0.0 mm 0.00 in/hr0.0 mm/hr 0.33 in8.4 mm
06:30 AM 58.1°F14.5°C 54.6°F12.6°C 88% Calm Calm -- 29.90 in1012.5 mb 0.00 in0.0 mm 0.00 in/hr0.0 mm/hr 0.33 in8.4 mm
06:15 AM 58.0°F14.4°C 54.5°F12.5°C 88% Calm Calm -- 29.90 in1012.5 mb 0.00 in0.0 mm 0.00 in/hr0.0 mm/hr 0.33 in8.4 mm
06:00 AM 57.9°F14.4°C 54.4°F12.4°C 88% Calm Calm -- 29.90 in1012.5 mb 0.00 in0.0 mm 0.00 in/hr0.0 mm/hr 0.33 in8.4 mm
05:45 AM 58.0°F14.4°C 54.4°F12.4°C 88% Calm Calm -- 29.90 in1012.5 mb 0.00 in0.0 mm 0.00 in/hr0.0 mm/hr 0.33 in8.4 mm
05:30 AM 58.1°F14.5°C 54.6°F12.6°C 88% Calm Calm -- 29.90 in1012.5 mb 0.00 in0.0 mm 0.00 in/hr0.0 mm/hr 0.33 in8.4 mm
05:15 AM 58.1°F14.5°C 54.6°F12.6°C 88% Calm Calm -- 29.91 in1012.9 mb 0.00 in0.0 mm 0.00 in/hr0.0 mm/hr 0.33 in8.4 mm
05:00 AM 58.1°F14.5°C 54.6°F12.6°C 88% Calm Calm -- 29.92 in1013.2 mb 0.00 in0.0 mm 0.00 in/hr0.0 mm/hr 0.33 in8.4 mm
04:45 AM 58.1°F14.5°C 54.6°F12.6°C 88% Calm Calm -- 29.91 in1012.9 mb 0.03 in0.8 mm 0.12 in/hr3.0 mm/hr 0.33 in8.4 mm
04:30 AM 58.1°F14.5°C 54.6°F12.6°C 88% Calm Calm -- 29.92 in1013.2 mb 0.00 in0.0 mm 0.00 in/hr0.0 mm/hr 0.30 in7.6 mm
04:15 AM 58.1°F14.5°C 54.6°F12.6°C 88% Calm Calm -- 29.92 in1013.2 mb 0.00 in0.0 mm 0.00 in/hr0.0 mm/hr 0.30 in7.6 mm
04:00 AM 57.9°F14.4°C 54.4°F12.4°C 88% Calm Calm -- 29.92 in1013.2 mb 0.00 in0.0 mm 0.00 in/hr0.0 mm/hr 0.30 in7.6 mm
03:45 AM 57.9°F14.4°C 54.4°F12.4°C 88% Calm Calm -- 29.92 in1013.2 mb 0.00 in0.0 mm 0.00 in/hr0.0 mm/hr 0.30 in7.6 mm
03:30 AM 57.9°F14.4°C 54.4°F12.4°C 88% Calm Calm -- 29.93 in1013.5 mb 0.03 in0.8 mm 0.12 in/hr3.0 mm/hr 0.30 in7.6 mm
03:15 AM 57.9°F14.4°C 54.4°F12.4°C 88% Calm Calm -- 29.94 in1013.9 mb 0.00 in0.0 mm 0.00 in/hr0.0 mm/hr 0.27 in6.9 mm
03:00 AM 57.9°F14.4°C 54.1°F12.3°C 87% Calm Calm -- 29.94 in1013.9 mb 0.03 in0.8 mm 0.04 in/hr1.0 mm/hr 0.27 in6.9 mm
02:45 AM 57.9°F14.4°C 54.1°F12.3°C 87% Calm Calm -- 29.95 in1014.2 mb 0.03 in0.8 mm 0.12 in/hr3.0 mm/hr 0.24 in6.1 mm
02:30 AM 57.9°F14.4°C 54.1°F12.3°C 87% Calm Calm -- 29.95 in1014.2 mb 0.00 in0.0 mm 0.00 in/hr0.0 mm/hr 0.21 in5.3 mm
02:15 AM 58.0°F14.4°C 54.2°F12.3°C 87% Calm Calm -- 29.95 in1014.2 mb 0.03 in0.8 mm 0.12 in/hr3.0 mm/hr 0.21 in5.3 mm
02:00 AM 58.1°F14.5°C 54.2°F12.3°C 87% Calm Calm -- 29.96 in1014.6 mb 0.03 in0.8 mm 0.04 in/hr1.0 mm/hr 0.18 in4.6 mm
01:45 AM 58.5°F14.7°C 54.6°F12.6°C 87% Calm Calm -- 29.97 in1014.9 mb 0.03 in0.8 mm 0.12 in/hr3.0 mm/hr 0.15 in3.8 mm
01:30 AM 58.6°F14.8°C 54.7°F12.6°C 87% Calm Calm -- 29.97 in1014.9 mb 0.03 in0.8 mm 0.12 in/hr3.0 mm/hr 0.12 in3.0 mm
01:15 AM 58.5°F14.7°C 54.6°F12.6°C 87% Calm Calm -- 29.98 in1015.2 mb 0.03 in0.8 mm 0.12 in/hr3.0 mm/hr 0.09 in2.3 mm
01:00 AM 58.5°F14.7°C 54.6°F12.6°C 87% Calm Calm -- 29.98 in1015.2 mb 0.03 in0.8 mm 0.04 in/hr1.0 mm/hr 0.06 in1.5 mm
12:45 AM 58.5°F14.7°C 54.6°F12.6°C 87% Calm Calm -- 29.98 in1015.2 mb 0.03 in0.8 mm 0.12 in/hr3.0 mm/hr 0.03 in0.8 mm
12:30 AM 58.5°F14.7°C 54.6°F12.6°C 87% Calm Calm -- 29.99 in1015.6 mb 0.00 in0.0 mm 0.00 in/hr0.0 mm/hr 0.03 in0.8 mm
12:15 AM 58.6°F14.8°C 54.8°F12.7°C 87% Calm Calm -- 29.99 in1015.6 mb 0.00 in0.0 mm 0.00 in/hr0.0 mm/hr 0.03 in0.8 mm
12:00 AM 59.0°F15.0°C 55.1°F12.8°C 87% Calm Calm -- 30.00 in1015.9 mb 0.03 in0.8 mm 0.00 in/hr0.0 mm/hr 0.03 in0.8 mm